sensor_id;sensor_type;location;lat;lon;timestamp;P1;durP1;ratioP1;P2;durP2;ratioP2
64110;SDS011;50401;48.188;11.566;2024-02-21T00:02:05;17.27;;;4.82;;
64110;SDS011;50401;48.188;11.566;2024-02-21T00:04:31;13.10;;;3.78;;
64110;SDS011;50401;48.188;11.566;2024-02-21T00:06:56;21.75;;;5.30;;
64110;SDS011;50401;48.188;11.566;2024-02-21T00:09:21;22.35;;;4.32;;
64110;SDS011;50401;48.188;11.566;2024-02-21T00:11:47;20.42;;;5.38;;
64110;SDS011;50401;48.188;11.566;2024-02-21T00:14:12;25.17;;;4.22;;
64110;SDS011;50401;48.188;11.566;2024-02-21T00:16:38;22.48;;;3.85;;
64110;SDS011;50401;48.188;11.566;2024-02-21T00:19:03;14.00;;;4.55;;
64110;SDS011;50401;48.188;11.566;2024-02-21T00:21:29;21.33;;;4.18;;
64110;SDS011;50401;48.188;11.566;2024-02-21T00:23:54;17.80;;;4.18;;
64110;SDS011;50401;48.188;11.566;2024-02-21T00:26:20;21.63;;;5.53;;
64110;SDS011;50401;48.188;11.566;2024-02-21T00:28:45;13.57;;;4.93;;
64110;SDS011;50401;48.188;11.566;2024-02-21T00:31:10;22.20;;;4.45;;
64110;SDS011;50401;48.188;11.566;2024-02-21T00:33:36;23.15;;;6.15;;
64110;SDS011;50401;48.188;11.566;2024-02-21T00:36:01;18.50;;;4.07;;
64110;SDS011;50401;48.188;11.566;2024-02-21T00:38:27;13.73;;;4.30;;
64110;SDS011;50401;48.188;11.566;2024-02-21T00:40:52;24.13;;;6.22;;
64110;SDS011;50401;48.188;11.566;2024-02-21T00:43:18;42.50;;;13.23;;
64110;SDS011;50401;48.188;11.566;2024-02-21T00:45:43;21.92;;;6.70;;
64110;SDS011;50401;48.188;11.566;2024-02-21T00:48:09;23.85;;;6.30;;
64110;SDS011;50401;48.188;11.566;2024-02-21T00:50:34;26.50;;;6.63;;
64110;SDS011;50401;48.188;11.566;2024-02-21T00:52:59;20.38;;;6.38;;
64110;SDS011;50401;48.188;11.566;2024-02-21T00:55:25;31.55;;;6.20;;
64110;SDS011;50401;48.188;11.566;2024-02-21T00:57:50;21.10;;;6.38;;
64110;SDS011;50401;48.188;11.566;2024-02-21T01:00:15;28.27;;;7.28;;
64110;SDS011;50401;48.188;11.566;2024-02-21T01:02:41;23.42;;;6.32;;
64110;SDS011;50401;48.188;11.566;2024-02-21T01:05:07;17.80;;;6.65;;
64110;SDS011;50401;48.188;11.566;2024-02-21T01:07:32;20.33;;;5.45;;
64110;SDS011;50401;48.188;11.566;2024-02-21T01:09:58;32.80;;;6.50;;
64110;SDS011;50401;48.188;11.566;2024-02-21T01:12:23;28.15;;;6.60;;
64110;SDS011;50401;48.188;11.566;2024-02-21T01:14:50;26.05;;;5.93;;
64110;SDS011;50401;48.188;11.566;2024-02-21T01:17:15;20.75;;;6.95;;
64110;SDS011;50401;48.188;11.566;2024-02-21T01:19:40;28.33;;;7.00;;
64110;SDS011;50401;48.188;11.566;2024-02-21T01:22:06;16.33;;;6.85;;
64110;SDS011;50401;48.188;11.566;2024-02-21T01:24:32;24.70;;;6.93;;
64110;SDS011;50401;48.188;11.566;2024-02-21T01:26:57;23.63;;;5.82;;
64110;SDS011;50401;48.188;11.566;2024-02-21T01:29:22;19.48;;;6.53;;
64110;SDS011;50401;48.188;11.566;2024-02-21T01:31:48;25.02;;;6.75;;
64110;SDS011;50401;48.188;11.566;2024-02-21T01:34:13;32.03;;;7.63;;
64110;SDS011;50401;48.188;11.566;2024-02-21T01:36:39;24.50;;;6.45;;
64110;SDS011;50401;48.188;11.566;2024-02-21T01:39:04;24.15;;;6.55;;
64110;SDS011;50401;48.188;11.566;2024-02-21T01:41:30;20.95;;;6.45;;
64110;SDS011;50401;48.188;11.566;2024-02-21T01:43:56;20.35;;;8.30;;
64110;SDS011;50401;48.188;11.566;2024-02-21T01:46:22;18.55;;;6.80;;
64110;SDS011;50401;48.188;11.566;2024-02-21T01:48:48;19.38;;;6.50;;
64110;SDS011;50401;48.188;11.566;2024-02-21T01:51:13;20.33;;;5.70;;
64110;SDS011;50401;48.188;11.566;2024-02-21T01:53:42;23.02;;;7.32;;
64110;SDS011;50401;48.188;11.566;2024-02-21T01:58:35;15.55;;;5.95;;
64110;SDS011;50401;48.188;11.566;2024-02-21T02:01:02;19.90;;;6.35;;
64110;SDS011;50401;48.188;11.566;2024-02-21T02:03:28;21.52;;;6.50;;
64110;SDS011;50401;48.188;11.566;2024-02-21T02:05:55;20.88;;;6.38;;
64110;SDS011;50401;48.188;11.566;2024-02-21T02:08:20;20.95;;;6.28;;
64110;SDS011;50401;48.188;11.566;2024-02-21T02:10:47;19.17;;;6.22;;
64110;SDS011;50401;48.188;11.566;2024-02-21T02:13:12;21.45;;;5.95;;
64110;SDS011;50401;48.188;11.566;2024-02-21T02:15:48;11.95;;;4.95;;
64110;SDS011;50401;48.188;11.566;2024-02-21T02:18:14;21.10;;;6.13;;
64110;SDS011;50401;48.188;11.566;2024-02-21T02:20:40;17.48;;;5.82;;
64110;SDS011;50401;48.188;11.566;2024-02-21T02:23:25;22.73;;;5.90;;
64110;SDS011;50401;48.188;11.566;2024-02-21T02:25:51;18.95;;;5.38;;
64110;SDS011;50401;48.188;11.566;2024-02-21T02:28:20;23.90;;;5.20;;
64110;SDS011;50401;48.188;11.566;2024-02-21T02:30:46;17.92;;;5.32;;
64110;SDS011;50401;48.188;11.566;2024-02-21T02:33:12;25.60;;;5.57;;
64110;SDS011;50401;48.188;11.566;2024-02-21T02:35:37;17.23;;;5.35;;
64110;SDS011;50401;48.188;11.566;2024-02-21T02:38:03;24.58;;;6.28;;
64110;SDS011;50401;48.188;11.566;2024-02-21T02:40:29;25.73;;;5.45;;
64110;SDS011;50401;48.188;11.566;2024-02-21T02:42:58;19.05;;;6.00;;
64110;SDS011;50401;48.188;11.566;2024-02-21T02:45:24;15.85;;;5.60;;
64110;SDS011;50401;48.188;11.566;2024-02-21T02:47:51;15.02;;;5.18;;
64110;SDS011;50401;48.188;11.566;2024-02-21T02:50:19;19.87;;;4.97;;
64110;SDS011;50401;48.188;11.566;2024-02-21T02:52:44;20.48;;;5.13;;
64110;SDS011;50401;48.188;11.566;2024-02-21T02:55:10;25.58;;;4.68;;
64110;SDS011;50401;48.188;11.566;2024-02-21T02:57:35;19.35;;;5.47;;
64110;SDS011;50401;48.188;11.566;2024-02-21T03:00:01;18.98;;;5.72;;
64110;SDS011;50401;48.188;11.566;2024-02-21T03:02:26;22.50;;;5.75;;
64110;SDS011;50401;48.188;11.566;2024-02-21T03:04:52;16.23;;;5.55;;
64110;SDS011;50401;48.188;11.566;2024-02-21T03:07:18;18.88;;;5.80;;
64110;SDS011;50401;48.188;11.566;2024-02-21T03:09:43;14.38;;;4.97;;
64110;SDS011;50401;48.188;11.566;2024-02-21T03:12:08;28.60;;;5.40;;
64110;SDS011;50401;48.188;11.566;2024-02-21T03:14:34;22.90;;;5.07;;
64110;SDS011;50401;48.188;11.566;2024-02-21T03:17:00;13.38;;;5.22;;
64110;SDS011;50401;48.188;11.566;2024-02-21T03:19:26;16.02;;;5.40;;
64110;SDS011;50401;48.188;11.566;2024-02-21T03:21:51;25.23;;;5.65;;
64110;SDS011;50401;48.188;11.566;2024-02-21T03:24:18;23.48;;;6.05;;
64110;SDS011;50401;48.188;11.566;2024-02-21T03:26:43;23.73;;;5.20;;
64110;SDS011;50401;48.188;11.566;2024-02-21T03:29:10;26.95;;;5.57;;
64110;SDS011;50401;48.188;11.566;2024-02-21T03:31:36;19.95;;;5.60;;
64110;SDS011;50401;48.188;11.566;2024-02-21T03:34:02;13.93;;;4.75;;
64110;SDS011;50401;48.188;11.566;2024-02-21T03:36:27;22.33;;;4.57;;
64110;SDS011;50401;48.188;11.566;2024-02-21T03:38:54;14.43;;;4.22;;
64110;SDS011;50401;48.188;11.566;2024-02-21T03:41:19;19.38;;;4.65;;
64110;SDS011;50401;48.188;11.566;2024-02-21T03:43:45;18.33;;;5.30;;
64110;SDS011;50401;48.188;11.566;2024-02-21T03:46:10;13.90;;;6.15;;
64110;SDS011;50401;48.188;11.566;2024-02-21T03:48:36;16.10;;;4.40;;
64110;SDS011;50401;48.188;11.566;2024-02-21T03:51:01;13.63;;;4.13;;
64110;SDS011;50401;48.188;11.566;2024-02-21T03:53:27;21.95;;;4.93;;
64110;SDS011;50401;48.188;11.566;2024-02-21T03:55:53;22.50;;;4.93;;
64110;SDS011;50401;48.188;11.566;2024-02-21T03:58:19;26.23;;;4.40;;
64110;SDS011;50401;48.188;11.566;2024-02-21T04:00:45;20.83;;;4.47;;
64110;SDS011;50401;48.188;11.566;2024-02-21T04:03:10;16.20;;;4.35;;
64110;SDS011;50401;48.188;11.566;2024-02-21T04:05:35;12.38;;;4.03;;
64110;SDS011;50401;48.188;11.566;2024-02-21T04:08:03;15.48;;;4.63;;
64110;SDS011;50401;48.188;11.566;2024-02-21T04:10:32;13.55;;;4.25;;
64110;SDS011;50401;48.188;11.566;2024-02-21T04:12:58;15.98;;;4.28;;
64110;SDS011;50401;48.188;11.566;2024-02-21T04:15:23;18.25;;;4.10;;
64110;SDS011;50401;48.188;11.566;2024-02-21T04:17:49;34.70;;;4.72;;
64110;SDS011;50401;48.188;11.566;2024-02-21T04:20:17;25.70;;;5.03;;
64110;SDS011;50401;48.188;11.566;2024-02-21T04:22:43;14.60;;;4.10;;
64110;SDS011;50401;48.188;11.566;2024-02-21T04:25:09;18.58;;;4.22;;
64110;SDS011;50401;48.188;11.566;2024-02-21T04:27:36;18.08;;;3.80;;
64110;SDS011;50401;48.188;11.566;2024-02-21T04:30:02;22.83;;;3.47;;
64110;SDS011;50401;48.188;11.566;2024-02-21T04:32:27;17.95;;;4.32;;
64110;SDS011;50401;48.188;11.566;2024-02-21T04:34:53;24.02;;;4.20;;
64110;SDS011;50401;48.188;11.566;2024-02-21T04:37:18;14.40;;;3.83;;
64110;SDS011;50401;48.188;11.566;2024-02-21T04:39:44;8.32;;;3.40;;
64110;SDS011;50401;48.188;11.566;2024-02-21T04:42:09;18.60;;;4.38;;
64110;SDS011;50401;48.188;11.566;2024-02-21T04:44:35;18.40;;;4.78;;
64110;SDS011;50401;48.188;11.566;2024-02-21T04:47:00;20.38;;;4.53;;
64110;SDS011;50401;48.188;11.566;2024-02-21T04:49:26;21.83;;;4.85;;
64110;SDS011;50401;48.188;11.566;2024-02-21T04:51:51;17.67;;;4.65;;
64110;SDS011;50401;48.188;11.566;2024-02-21T04:54:16;18.27;;;4.32;;
64110;SDS011;50401;48.188;11.566;2024-02-21T04:56:42;19.27;;;4.07;;
64110;SDS011;50401;48.188;11.566;2024-02-21T04:59:07;18.58;;;5.18;;
64110;SDS011;50401;48.188;11.566;2024-02-21T05:01:32;24.33;;;5.10;;
64110;SDS011;50401;48.188;11.566;2024-02-21T05:03:58;15.95;;;4.57;;
64110;SDS011;50401;48.188;11.566;2024-02-21T05:06:23;18.90;;;4.50;;
64110;SDS011;50401;48.188;11.566;2024-02-21T05:08:49;14.45;;;3.75;;
64110;SDS011;50401;48.188;11.566;2024-02-21T05:11:14;17.70;;;4.60;;
64110;SDS011;50401;48.188;11.566;2024-02-21T05:13:39;25.52;;;6.72;;
64110;SDS011;50401;48.188;11.566;2024-02-21T05:16:06;24.58;;;4.68;;
64110;SDS011;50401;48.188;11.566;2024-02-21T05:18:32;24.85;;;4.05;;
64110;SDS011;50401;48.188;11.566;2024-02-21T05:20:58;14.43;;;4.03;;
64110;SDS011;50401;48.188;11.566;2024-02-21T05:23:24;9.85;;;3.70;;
64110;SDS011;50401;48.188;11.566;2024-02-21T05:25:49;22.10;;;3.63;;
64110;SDS011;50401;48.188;11.566;2024-02-21T05:28:14;34.63;;;4.30;;
64110;SDS011;50401;48.188;11.566;2024-02-21T05:30:40;11.80;;;3.90;;
64110;SDS011;50401;48.188;11.566;2024-02-21T05:33:08;13.95;;;3.95;;
64110;SDS011;50401;48.188;11.566;2024-02-21T05:35:33;27.45;;;3.70;;
64110;SDS011;50401;48.188;11.566;2024-02-21T05:37:59;29.23;;;3.83;;
64110;SDS011;50401;48.188;11.566;2024-02-21T05:40:25;31.02;;;4.53;;
64110;SDS011;50401;48.188;11.566;2024-02-21T05:42:51;23.73;;;4.63;;
64110;SDS011;50401;48.188;11.566;2024-02-21T05:45:17;19.13;;;4.57;;
64110;SDS011;50401;48.188;11.566;2024-02-21T05:47:43;23.48;;;4.57;;
64110;SDS011;50401;48.188;11.566;2024-02-21T05:50:09;16.23;;;3.40;;
64110;SDS011;50401;48.188;11.566;2024-02-21T05:52:34;22.92;;;3.67;;
64110;SDS011;50401;48.188;11.566;2024-02-21T05:55:00;29.10;;;3.75;;
64110;SDS011;50401;48.188;11.566;2024-02-21T05:57:25;27.77;;;4.22;;
64110;SDS011;50401;48.188;11.566;2024-02-21T05:59:51;18.95;;;4.00;;
64110;SDS011;50401;48.188;11.566;2024-02-21T06:02:16;14.50;;;3.50;;
64110;SDS011;50401;48.188;11.566;2024-02-21T06:04:41;16.80;;;3.63;;
64110;SDS011;50401;48.188;11.566;2024-02-21T06:07:07;42.50;;;4.15;;
64110;SDS011;50401;48.188;11.566;2024-02-21T06:09:33;21.80;;;3.40;;
64110;SDS011;50401;48.188;11.566;2024-02-21T06:11:59;21.15;;;3.72;;
64110;SDS011;50401;48.188;11.566;2024-02-21T06:14:24;20.05;;;3.33;;
64110;SDS011;50401;48.188;11.566;2024-02-21T06:16:49;16.40;;;3.58;;
64110;SDS011;50401;48.188;11.566;2024-02-21T06:19:15;12.18;;;2.90;;
64110;SDS011;50401;48.188;11.566;2024-02-21T06:21:40;6.80;;;2.80;;
64110;SDS011;50401;48.188;11.566;2024-02-21T06:24:06;21.67;;;4.68;;
64110;SDS011;50401;48.188;11.566;2024-02-21T06:26:31;13.13;;;3.05;;
64110;SDS011;50401;48.188;11.566;2024-02-21T06:28:56;13.80;;;3.03;;
64110;SDS011;50401;48.188;11.566;2024-02-21T06:31:22;12.57;;;3.38;;
64110;SDS011;50401;48.188;11.566;2024-02-21T06:33:47;16.83;;;3.25;;
64110;SDS011;50401;48.188;11.566;2024-02-21T06:36:13;10.43;;;2.58;;
64110;SDS011;50401;48.188;11.566;2024-02-21T06:38:38;10.88;;;3.33;;
64110;SDS011;50401;48.188;11.566;2024-02-21T06:41:04;10.98;;;3.08;;
64110;SDS011;50401;48.188;11.566;2024-02-21T06:43:29;14.90;;;3.10;;
64110;SDS011;50401;48.188;11.566;2024-02-21T06:45:55;26.90;;;4.28;;
64110;SDS011;50401;48.188;11.566;2024-02-21T06:48:21;22.63;;;3.80;;
64110;SDS011;50401;48.188;11.566;2024-02-21T06:50:47;13.43;;;3.70;;
64110;SDS011;50401;48.188;11.566;2024-02-21T06:53:12;11.10;;;3.03;;
64110;SDS011;50401;48.188;11.566;2024-02-21T06:55:38;22.10;;;3.25;;
64110;SDS011;50401;48.188;11.566;2024-02-21T06:58:04;29.50;;;4.35;;
64110;SDS011;50401;48.188;11.566;2024-02-21T07:00:30;12.02;;;2.60;;
64110;SDS011;50401;48.188;11.566;2024-02-21T07:02:55;21.90;;;3.33;;
64110;SDS011;50401;48.188;11.566;2024-02-21T07:05:21;20.63;;;3.65;;
64110;SDS011;50401;48.188;11.566;2024-02-21T07:07:46;13.38;;;3.05;;
64110;SDS011;50401;48.188;11.566;2024-02-21T07:10:11;32.60;;;3.78;;
64110;SDS011;50401;48.188;11.566;2024-02-21T07:12:37;13.85;;;3.78;;
64110;SDS011;50401;48.188;11.566;2024-02-21T07:15:08;21.23;;;3.60;;
64110;SDS011;50401;48.188;11.566;2024-02-21T07:17:33;18.20;;;3.75;;
64110;SDS011;50401;48.188;11.566;2024-02-21T07:19:59;28.42;;;5.05;;
64110;SDS011;50401;48.188;11.566;2024-02-21T07:22:25;11.15;;;2.78;;
64110;SDS011;50401;48.188;11.566;2024-02-21T07:24:50;10.68;;;3.42;;
64110;SDS011;50401;48.188;11.566;2024-02-21T07:27:15;22.35;;;4.03;;
64110;SDS011;50401;48.188;11.566;2024-02-21T07:29:41;12.43;;;3.10;;
64110;SDS011;50401;48.188;11.566;2024-02-21T07:32:07;10.40;;;3.08;;
64110;SDS011;50401;48.188;11.566;2024-02-21T07:34:32;25.77;;;3.72;;
64110;SDS011;50401;48.188;11.566;2024-02-21T07:36:58;33.15;;;4.00;;
64110;SDS011;50401;48.188;11.566;2024-02-21T07:39:23;17.65;;;3.72;;
64110;SDS011;50401;48.188;11.566;2024-02-21T07:41:48;18.70;;;3.50;;
64110;SDS011;50401;48.188;11.566;2024-02-21T07:44:14;9.07;;;3.22;;
64110;SDS011;50401;48.188;11.566;2024-02-21T07:46:40;16.67;;;3.20;;
64110;SDS011;50401;48.188;11.566;2024-02-21T07:49:05;12.57;;;2.70;;
64110;SDS011;50401;48.188;11.566;2024-02-21T07:51:31;23.08;;;2.90;;
64110;SDS011;50401;48.188;11.566;2024-02-21T07:53:56;11.50;;;3.13;;
64110;SDS011;50401;48.188;11.566;2024-02-21T07:56:22;13.38;;;2.10;;
64110;SDS011;50401;48.188;11.566;2024-02-21T07:58:47;9.65;;;2.25;;
64110;SDS011;50401;48.188;11.566;2024-02-21T08:01:17;14.50;;;2.53;;
64110;SDS011;50401;48.188;11.566;2024-02-21T08:03:44;7.10;;;2.40;;
64110;SDS011;50401;48.188;11.566;2024-02-21T08:06:11;7.40;;;2.53;;
64110;SDS011;50401;48.188;11.566;2024-02-21T08:08:37;25.15;;;2.35;;
64110;SDS011;50401;48.188;11.566;2024-02-21T08:11:03;14.55;;;2.20;;
64110;SDS011;50401;48.188;11.566;2024-02-21T08:13:28;13.52;;;2.40;;
64110;SDS011;50401;48.188;11.566;2024-02-21T08:15:54;8.82;;;2.00;;
64110;SDS011;50401;48.188;11.566;2024-02-21T08:18:19;18.08;;;2.88;;
64110;SDS011;50401;48.188;11.566;2024-02-21T08:20:45;6.35;;;1.90;;
64110;SDS011;50401;48.188;11.566;2024-02-21T08:23:10;12.68;;;1.85;;
64110;SDS011;50401;48.188;11.566;2024-02-21T08:25:35;15.50;;;2.42;;
64110;SDS011;50401;48.188;11.566;2024-02-21T08:28:01;15.95;;;2.95;;
64110;SDS011;50401;48.188;11.566;2024-02-21T08:30:27;11.50;;;3.00;;
64110;SDS011;50401;48.188;11.566;2024-02-21T08:32:52;9.68;;;1.92;;
64110;SDS011;50401;48.188;11.566;2024-02-21T08:35:21;13.35;;;2.83;;
64110;SDS011;50401;48.188;11.566;2024-02-21T08:37:49;11.23;;;2.00;;
64110;SDS011;50401;48.188;11.566;2024-02-21T08:40:15;18.33;;;2.70;;
64110;SDS011;50401;48.188;11.566;2024-02-21T08:42:42;31.45;;;3.58;;
64110;SDS011;50401;48.188;11.566;2024-02-21T08:45:08;16.08;;;2.30;;
64110;SDS011;50401;48.188;11.566;2024-02-21T08:47:34;20.00;;;2.85;;
64110;SDS011;50401;48.188;11.566;2024-02-21T08:50:02;26.65;;;2.92;;
64110;SDS011;50401;48.188;11.566;2024-02-21T08:52:28;19.50;;;3.90;;
64110;SDS011;50401;48.188;11.566;2024-02-21T08:54:53;36.00;;;4.38;;
64110;SDS011;50401;48.188;11.566;2024-02-21T08:57:19;21.58;;;2.85;;
64110;SDS011;50401;48.188;11.566;2024-02-21T08:59:45;22.42;;;3.03;;
64110;SDS011;50401;48.188;11.566;2024-02-21T09:02:10;13.95;;;1.95;;
64110;SDS011;50401;48.188;11.566;2024-02-21T09:04:36;30.25;;;2.58;;
64110;SDS011;50401;48.188;11.566;2024-02-21T09:07:01;29.27;;;2.95;;
64110;SDS011;50401;48.188;11.566;2024-02-21T09:09:26;16.77;;;2.47;;
64110;SDS011;50401;48.188;11.566;2024-02-21T09:11:53;18.90;;;3.15;;
64110;SDS011;50401;48.188;11.566;2024-02-21T09:14:18;25.05;;;2.75;;
64110;SDS011;50401;48.188;11.566;2024-02-21T09:16:44;32.08;;;3.40;;
64110;SDS011;50401;48.188;11.566;2024-02-21T09:19:09;18.65;;;2.47;;
64110;SDS011;50401;48.188;11.566;2024-02-21T09:21:39;50.25;;;3.83;;
64110;SDS011;50401;48.188;11.566;2024-02-21T09:24:07;23.02;;;3.08;;
64110;SDS011;50401;48.188;11.566;2024-02-21T09:26:33;51.45;;;4.82;;
64110;SDS011;50401;48.188;11.566;2024-02-21T09:28:58;41.03;;;4.05;;
64110;SDS011;50401;48.188;11.566;2024-02-21T09:31:24;34.30;;;3.30;;
64110;SDS011;50401;48.188;11.566;2024-02-21T09:33:50;25.90;;;3.30;;
64110;SDS011;50401;48.188;11.566;2024-02-21T09:36:15;29.23;;;2.88;;
64110;SDS011;50401;48.188;11.566;2024-02-21T09:38:40;17.35;;;3.20;;
64110;SDS011;50401;48.188;11.566;2024-02-21T09:41:16;11.60;;;2.53;;
64110;SDS011;50401;48.188;11.566;2024-02-21T09:43:43;22.17;;;2.53;;
64110;SDS011;50401;48.188;11.566;2024-02-21T09:46:16;29.45;;;3.10;;
64110;SDS011;50401;48.188;11.566;2024-02-21T09:51:35;15.95;;;2.75;;
64110;SDS011;50401;48.188;11.566;2024-02-21T09:54:03;14.65;;;2.90;;
64110;SDS011;50401;48.188;11.566;2024-02-21T09:56:29;38.10;;;3.10;;
64110;SDS011;50401;48.188;11.566;2024-02-21T09:58:55;20.25;;;2.42;;
64110;SDS011;50401;48.188;11.566;2024-02-21T10:01:22;18.15;;;2.72;;
64110;SDS011;50401;48.188;11.566;2024-02-21T10:03:47;18.02;;;2.40;;
64110;SDS011;50401;48.188;11.566;2024-02-21T10:06:13;20.52;;;2.67;;
64110;SDS011;50401;48.188;11.566;2024-02-21T10:08:38;20.05;;;1.83;;
64110;SDS011;50401;48.188;11.566;2024-02-21T10:11:04;28.08;;;4.55;;
64110;SDS011;50401;48.188;11.566;2024-02-21T10:13:29;12.45;;;2.42;;
64110;SDS011;50401;48.188;11.566;2024-02-21T10:16:01;14.93;;;1.90;;
64110;SDS011;50401;48.188;11.566;2024-02-21T10:18:28;11.50;;;2.60;;
64110;SDS011;50401;48.188;11.566;2024-02-21T10:21:00;17.67;;;2.13;;
64110;SDS011;50401;48.188;11.566;2024-02-21T10:23:26;20.83;;;2.97;;
64110;SDS011;50401;48.188;11.566;2024-02-21T10:25:52;18.85;;;2.53;;
64110;SDS011;50401;48.188;11.566;2024-02-21T10:28:17;7.40;;;2.00;;
64110;SDS011;50401;48.188;11.566;2024-02-21T10:30:51;17.75;;;2.25;;
64110;SDS011;50401;48.188;11.566;2024-02-21T10:33:17;13.13;;;1.98;;
64110;SDS011;50401;48.188;11.566;2024-02-21T10:35:45;11.68;;;2.10;;
64110;SDS011;50401;48.188;11.566;2024-02-21T10:38:11;14.02;;;2.00;;
64110;SDS011;50401;48.188;11.566;2024-02-21T10:40:37;13.73;;;1.95;;
64110;SDS011;50401;48.188;11.566;2024-02-21T10:43:03;14.02;;;2.67;;
64110;SDS011;50401;48.188;11.566;2024-02-21T10:45:36;14.85;;;2.28;;
64110;SDS011;50401;48.188;11.566;2024-02-21T10:48:11;24.10;;;7.68;;
64110;SDS011;50401;48.188;11.566;2024-02-21T10:53:15;25.58;;;4.03;;
64110;SDS011;50401;48.188;11.566;2024-02-21T10:55:44;17.67;;;2.30;;
64110;SDS011;50401;48.188;11.566;2024-02-21T10:58:17;10.38;;;1.77;;
64110;SDS011;50401;48.188;11.566;2024-02-21T11:00:43;8.30;;;2.00;;
64110;SDS011;50401;48.188;11.566;2024-02-21T11:03:09;14.48;;;1.95;;
64110;SDS011;50401;48.188;11.566;2024-02-21T11:05:35;17.95;;;2.88;;
64110;SDS011;50401;48.188;11.566;2024-02-21T11:08:02;8.30;;;2.30;;
64110;SDS011;50401;48.188;11.566;2024-02-21T11:13:06;10.32;;;2.47;;
64110;SDS011;50401;48.188;11.566;2024-02-21T11:15:34;18.38;;;2.35;;
64110;SDS011;50401;48.188;11.566;2024-02-21T11:17:59;21.52;;;3.28;;
64110;SDS011;50401;48.188;11.566;2024-02-21T11:20:35;37.65;;;4.45;;
64110;SDS011;50401;48.188;11.566;2024-02-21T11:23:01;23.10;;;2.63;;
64110;SDS011;50401;48.188;11.566;2024-02-21T11:25:27;40.13;;;3.90;;
64110;SDS011;50401;48.188;11.566;2024-02-21T11:27:59;14.10;;;1.98;;
64110;SDS011;50401;48.188;11.566;2024-02-21T11:30:31;8.65;;;2.20;;
64110;SDS011;50401;48.188;11.566;2024-02-21T11:33:06;17.83;;;4.70;;
64110;SDS011;50401;48.188;11.566;2024-02-21T11:35:34;12.73;;;1.75;;
64110;SDS011;50401;48.188;11.566;2024-02-21T11:38:10;24.00;;;2.33;;
64110;SDS011;50401;48.188;11.566;2024-02-21T11:40:44;19.02;;;2.92;;
64110;SDS011;50401;48.188;11.566;2024-02-21T11:43:10;29.17;;;3.25;;
64110;SDS011;50401;48.188;11.566;2024-02-21T11:45:35;10.43;;;2.47;;
64110;SDS011;50401;48.188;11.566;2024-02-21T11:48:01;13.82;;;2.05;;
64110;SDS011;50401;48.188;11.566;2024-02-21T11:50:29;12.55;;;2.30;;
64110;SDS011;50401;48.188;11.566;2024-02-21T11:52:55;14.70;;;1.77;;
64110;SDS011;50401;48.188;11.566;2024-02-21T11:55:21;18.33;;;1.70;;
64110;SDS011;50401;48.188;11.566;2024-02-21T11:57:47;10.43;;;2.00;;
64110;SDS011;50401;48.188;11.566;2024-02-21T12:00:14;7.53;;;1.65;;
64110;SDS011;50401;48.188;11.566;2024-02-21T12:02:40;17.23;;;1.55;;
64110;SDS011;50401;48.188;11.566;2024-02-21T12:05:06;15.55;;;2.88;;
64110;SDS011;50401;48.188;11.566;2024-02-21T12:07:32;16.50;;;3.92;;
64110;SDS011;50401;48.188;11.566;2024-02-21T12:10:01;12.00;;;3.00;;
64110;SDS011;50401;48.188;11.566;2024-02-21T12:12:26;13.10;;;2.85;;
64110;SDS011;50401;48.188;11.566;2024-02-21T12:14:55;7.43;;;1.98;;
64110;SDS011;50401;48.188;11.566;2024-02-21T12:17:23;9.00;;;1.85;;
64110;SDS011;50401;48.188;11.566;2024-02-21T12:19:50;8.88;;;1.90;;
64110;SDS011;50401;48.188;11.566;2024-02-21T12:22:18;9.68;;;1.85;;
64110;SDS011;50401;48.188;11.566;2024-02-21T12:24:44;11.45;;;2.10;;
64110;SDS011;50401;48.188;11.566;2024-02-21T12:27:12;6.65;;;1.50;;
64110;SDS011;50401;48.188;11.566;2024-02-21T12:29:38;4.88;;;1.52;;
64110;SDS011;50401;48.188;11.566;2024-02-21T12:32:04;9.57;;;1.65;;
64110;SDS011;50401;48.188;11.566;2024-02-21T12:34:29;4.57;;;1.42;;
64110;SDS011;50401;48.188;11.566;2024-02-21T12:36:58;20.90;;;2.13;;
64110;SDS011;50401;48.188;11.566;2024-02-21T12:39:23;11.57;;;2.13;;
64110;SDS011;50401;48.188;11.566;2024-02-21T12:41:49;5.30;;;1.10;;
64110;SDS011;50401;48.188;11.566;2024-02-21T12:44:14;10.75;;;1.10;;
64110;SDS011;50401;48.188;11.566;2024-02-21T12:46:43;4.68;;;0.80;;
64110;SDS011;50401;48.188;11.566;2024-02-21T12:49:08;11.75;;;1.67;;
64110;SDS011;50401;48.188;11.566;2024-02-21T12:51:34;10.48;;;1.45;;
64110;SDS011;50401;48.188;11.566;2024-02-21T12:54:01;20.73;;;1.30;;
64110;SDS011;50401;48.188;11.566;2024-02-21T12:56:28;35.50;;;3.33;;
64110;SDS011;50401;48.188;11.566;2024-02-21T12:58:54;29.48;;;2.65;;
64110;SDS011;50401;48.188;11.566;2024-02-21T13:01:20;39.30;;;2.03;;
64110;SDS011;50401;48.188;11.566;2024-02-21T13:03:46;28.58;;;3.58;;
64110;SDS011;50401;48.188;11.566;2024-02-21T13:06:11;29.60;;;2.70;;
64110;SDS011;50401;48.188;11.566;2024-02-21T13:08:37;6.72;;;1.55;;
64110;SDS011;50401;48.188;11.566;2024-02-21T13:11:03;23.33;;;2.05;;
64110;SDS011;50401;48.188;11.566;2024-02-21T13:13:30;49.63;;;2.72;;
64110;SDS011;50401;48.188;11.566;2024-02-21T13:15:56;15.18;;;1.73;;
64110;SDS011;50401;48.188;11.566;2024-02-21T13:18:24;5.32;;;1.25;;
64110;SDS011;50401;48.188;11.566;2024-02-21T13:20:50;127.50;;;9.13;;
64110;SDS011;50401;48.188;11.566;2024-02-21T13:23:15;29.65;;;2.70;;
64110;SDS011;50401;48.188;11.566;2024-02-21T13:25:40;38.83;;;2.83;;
64110;SDS011;50401;48.188;11.566;2024-02-21T13:28:06;48.47;;;3.00;;
64110;SDS011;50401;48.188;11.566;2024-02-21T13:30:32;17.30;;;1.65;;
64110;SDS011;50401;48.188;11.566;2024-02-21T13:32:57;6.93;;;1.70;;
64110;SDS011;50401;48.188;11.566;2024-02-21T13:35:22;9.07;;;1.63;;
64110;SDS011;50401;48.188;11.566;2024-02-21T13:37:48;23.83;;;2.45;;
64110;SDS011;50401;48.188;11.566;2024-02-21T13:40:14;11.77;;;1.40;;
64110;SDS011;50401;48.188;11.566;2024-02-21T13:42:39;18.77;;;2.28;;
64110;SDS011;50401;48.188;11.566;2024-02-21T13:45:05;29.27;;;2.40;;
64110;SDS011;50401;48.188;11.566;2024-02-21T13:47:32;33.20;;;3.95;;
64110;SDS011;50401;48.188;11.566;2024-02-21T13:49:58;19.05;;;4.10;;
64110;SDS011;50401;48.188;11.566;2024-02-21T13:52:23;17.73;;;4.07;;
64110;SDS011;50401;48.188;11.566;2024-02-21T13:54:51;19.55;;;2.13;;
64110;SDS011;50401;48.188;11.566;2024-02-21T13:57:19;13.55;;;2.13;;
64110;SDS011;50401;48.188;11.566;2024-02-21T13:59:44;26.73;;;3.00;;
64110;SDS011;50401;48.188;11.566;2024-02-21T14:02:09;23.88;;;3.28;;
64110;SDS011;50401;48.188;11.566;2024-02-21T14:04:35;27.65;;;2.95;;
64110;SDS011;50401;48.188;11.566;2024-02-21T14:07:00;21.55;;;3.28;;
64110;SDS011;50401;48.188;11.566;2024-02-21T14:09:26;15.05;;;2.13;;
64110;SDS011;50401;48.188;11.566;2024-02-21T14:11:54;3.20;;;1.60;;
64110;SDS011;50401;48.188;11.566;2024-02-21T14:14:20;5.43;;;1.17;;
64110;SDS011;50401;48.188;11.566;2024-02-21T14:16:45;8.25;;;1.10;;
64110;SDS011;50401;48.188;11.566;2024-02-21T14:19:12;4.30;;;0.77;;
64110;SDS011;50401;48.188;11.566;2024-02-21T14:21:38;8.38;;;1.65;;
64110;SDS011;50401;48.188;11.566;2024-02-21T14:24:04;9.10;;;1.23;;
64110;SDS011;50401;48.188;11.566;2024-02-21T14:26:30;12.05;;;2.03;;
64110;SDS011;50401;48.188;11.566;2024-02-21T14:28:56;22.42;;;7.30;;